To NAV CANADA Home Page Login to a new session Search on AWWS site Feedback and Comments Disclaimer Vers la page française équivalente Tips FAQ What's new on the site To the Forecasts and Observations / NOTAM section To "File a Flight Plan" website Publications and other links Update of the User's profile FIC Telephone Numbers My Weather Data Folder Route Weather Data Regional Weather Data Local Weather Data To the Forecasts and Observations / NOTAM section
Request Generated 06/26/2017 at 22:34:36 UTC . Weather information available at that time is displayed.

METAR/TAF

FARO/YT    

METAR CZFA 262200Z 27010G//KT 30SM FEW050TCU BKN058 BKN073 16/05
A2977 RMK TCU2SC3AC2 WND ESTD SLP099 DENSITY ALT 3300FT=
SPECI CZFA 262137Z 27010G//KT 30SM FEW040 SCT050TCU BKN060 BKN073
17/05 A2977 RMK CU1TCU2SC2AC1 WND ESTD SLP098 DENSITY ALT 3300FT=
SPECI CZFA 262114Z 27010KT 30SM -SHRA FEW040TCU BKN058 BKN073 16/05
A2978 RMK TCU2SC3AC2 CU ASOCTD WND ESTD SLP102 DENSITY ALT 3200FT=
METAR CZFA 262100Z 27010KT 30SM VCSH FEW040TCU BKN060 OVC073 15/05
A2979 RMK TCU2SC3AC3 CU ASOCTD WND ESTD SLP104 DENSITY ALT 3100FT=
METAR CZFA 262000Z 27008KT 30SM OVC055 15/05 A2979 RMK SC8 WND ESTD
SLP103 DENSITY ALT 3100FT=

TAF AMD CZFA 262219Z 2622/2701 27010G20KT P6SM BKN060 TEMPO 2622/2701
P6SM -SHRA BKN060
RMK NXT FCST WILL BE ISSUED AT 271445Z=
Your time UTC time
Weather data provided by Environment Canada and NAV CANADA